createdAt,value
2023-11-10T00:00:01.902Z,61.74
2023-11-10T00:02:31.243Z,61.53
2023-11-10T00:04:59.414Z,62.32
2023-11-10T00:07:29.870Z,61.74
2023-11-10T00:09:57.754Z,60.58
2023-11-10T00:12:26.009Z,60.76
2023-11-10T00:14:53.947Z,60.84
2023-11-10T00:17:22.047Z,60.89
2023-11-10T00:19:51.349Z,61.89
2023-11-10T00:22:19.315Z,61.67
2023-11-10T00:24:47.359Z,60.92
2023-11-10T00:27:16.379Z,60.85
2023-11-10T00:29:46.550Z,60.51
2023-11-10T00:32:15.066Z,60.42
2023-11-10T00:34:43.661Z,59.75
2023-11-10T00:37:13.275Z,61.25
2023-11-10T00:39:41.453Z,61.57
2023-11-10T00:42:09.457Z,61.69
2023-11-10T00:44:37.934Z,61.36
2023-11-10T00:47:06.237Z,60.41
2023-11-10T00:49:34.207Z,61.26
2023-11-10T00:52:02.145Z,59.92
2023-11-10T00:54:33.600Z,60.57
2023-11-10T00:57:01.550Z,60.36
2023-11-10T00:59:29.467Z,60.28
2023-11-10T01:01:57.643Z,60.69
2023-11-10T01:04:25.763Z,61.65
2023-11-10T01:06:53.743Z,61.24
2023-11-10T01:09:21.868Z,60.93
2023-11-10T01:11:52.590Z,63.76
2023-11-10T01:14:22.037Z,65.48
2023-11-10T01:16:50.127Z,64.99
2023-11-10T01:19:18.264Z,65.27
2023-11-10T01:21:48.162Z,64.44
2023-11-10T01:24:17.838Z,63.98
2023-11-10T01:26:45.871Z,62.51
2023-11-10T01:29:15.116Z,63.11
2023-11-10T01:31:43.022Z,62.97
2023-11-10T01:34:11.145Z,62.56
2023-11-10T01:36:39.208Z,62.12
2023-11-10T01:39:09.551Z,61.30
2023-11-10T01:41:39.115Z,61.59
2023-11-10T01:44:07.499Z,61.41
2023-11-10T01:46:57.886Z,61.42
2023-11-10T01:49:30.185Z,60.39
2023-11-10T01:51:58.478Z,60.52
2023-11-10T01:54:35.423Z,60.46
2023-11-10T01:57:07.064Z,60.32
2023-11-10T01:59:37.938Z,59.71
2023-11-10T02:02:08.820Z,60.10
2023-11-10T02:04:37.928Z,59.73
2023-11-10T02:07:06.606Z,59.56
2023-11-10T02:09:34.584Z,59.58
2023-11-10T02:12:02.978Z,59.45
2023-11-10T02:14:33.706Z,59.00
2023-11-10T02:17:02.015Z,59.00
2023-11-10T02:19:31.748Z,59.25
2023-11-10T02:21:59.739Z,58.90
2023-11-10T02:24:31.071Z,58.90
2023-11-10T02:27:00.325Z,58.80
2023-11-10T02:29:28.210Z,59.12
2023-11-10T02:31:56.777Z,58.92
2023-11-10T02:34:25.114Z,58.75
2023-11-10T02:36:53.182Z,58.67
2023-11-10T02:39:21.072Z,58.69
2023-11-10T02:41:51.227Z,58.30
2023-11-10T02:44:20.561Z,58.74
2023-11-10T02:46:48.672Z,58.32
2023-11-10T02:49:16.813Z,58.73
2023-11-10T02:51:45.072Z,58.32
2023-11-10T02:54:13.015Z,58.65
2023-11-10T02:56:40.917Z,59.02
2023-11-10T02:59:12.154Z,58.98
2023-11-10T03:01:41.418Z,58.42
2023-11-10T03:04:09.725Z,58.13
2023-11-10T03:06:37.716Z,58.44
2023-11-10T03:09:06.110Z,58.08
2023-11-10T03:11:34.168Z,57.62
2023-11-10T03:17:48.917Z,57.86
2023-11-10T03:20:17.155Z,58.15
2023-11-10T03:22:45.798Z,58.03
2023-11-10T03:25:13.733Z,58.02
2023-11-10T03:27:41.755Z,58.07
2023-11-10T03:30:11.110Z,57.60
2023-11-10T03:32:39.415Z,58.16
2023-11-10T03:35:09.805Z,58.04
2023-11-10T03:37:37.818Z,58.76
2023-11-10T03:40:07.025Z,58.92
2023-11-10T03:42:35.076Z,58.77
2023-11-10T03:45:04.832Z,58.96
2023-11-10T03:47:33.495Z,58.97
2023-11-10T03:50:01.445Z,59.32
2023-11-10T03:52:30.927Z,58.80
2023-11-10T03:54:58.798Z,59.21
2023-11-10T03:57:26.726Z,58.82
2023-11-10T03:59:54.635Z,59.27
2023-11-10T04:02:22.866Z,59.04
2023-11-10T04:04:50.777Z,59.16
2023-11-10T04:07:18.770Z,59.34
2023-11-10T04:09:48.127Z,59.23
2023-11-10T04:12:16.101Z,59.17
2023-11-10T04:14:43.998Z,58.91
2023-11-10T04:17:11.907Z,59.36
2023-11-10T04:19:39.829Z,59.85
2023-11-10T04:22:08.880Z,60.49
2023-11-10T04:24:36.802Z,62.93
2023-11-10T04:27:07.271Z,65.18
2023-11-10T04:29:37.234Z,66.01
2023-11-10T04:32:05.790Z,65.22
2023-11-10T04:34:33.868Z,64.54
2023-11-10T04:37:01.892Z,63.83
2023-11-10T04:39:29.829Z,63.16
2023-11-10T04:41:57.724Z,62.66
2023-11-10T04:44:26.975Z,62.29
2023-11-10T04:46:54.979Z,62.06
2023-11-10T04:49:22.911Z,61.93
2023-11-10T04:51:53.871Z,61.73
2023-11-10T04:54:21.872Z,61.16
2023-11-10T04:56:49.781Z,61.20
2023-11-10T04:59:17.750Z,60.45
2023-11-10T05:01:47.683Z,60.98
2023-11-10T05:04:15.806Z,61.04
2023-11-10T05:06:43.892Z,60.44
2023-11-10T05:09:11.907Z,61.04
2023-11-10T05:11:39.881Z,60.43
2023-11-10T05:14:07.858Z,60.19
2023-11-10T05:16:35.848Z,60.42
2023-11-10T05:19:05.476Z,60.47
2023-11-10T05:21:33.539Z,60.78
2023-11-10T05:24:01.773Z,60.77
2023-11-10T05:26:31.309Z,61.03
2023-11-10T05:28:59.249Z,60.87
2023-11-10T05:31:27.217Z,60.92
2023-11-10T05:33:57.016Z,60.55
2023-11-10T05:36:26.949Z,60.44
2023-11-10T05:38:54.938Z,60.83
2023-11-10T05:41:26.008Z,60.72
2023-11-10T05:43:53.941Z,60.82
2023-11-10T05:46:23.089Z,60.64
2023-11-10T05:48:51.140Z,60.27
2023-11-10T05:51:19.528Z,60.55
2023-11-10T05:53:48.789Z,60.47
2023-11-10T05:56:16.722Z,59.95
2023-11-10T05:58:44.622Z,60.47
2023-11-10T06:01:12.535Z,60.45
2023-11-10T06:03:41.119Z,59.65
2023-11-10T06:06:09.295Z,60.23
2023-11-10T06:08:37.709Z,60.08
2023-11-10T06:11:07.123Z,59.93
2023-11-10T06:13:35.773Z,60.30
2023-11-10T06:16:06.279Z,60.38
2023-11-10T06:18:34.273Z,59.96
2023-11-10T06:21:02.210Z,60.66
2023-11-10T06:23:30.721Z,60.50
2023-11-10T06:26:01.335Z,60.82
2023-11-10T06:28:30.625Z,60.38
2023-11-10T06:30:59.022Z,60.17
2023-11-10T06:33:27.240Z,60.07
2023-11-10T06:35:55.222Z,60.72
2023-11-10T06:38:23.410Z,61.17
2023-11-10T06:40:51.345Z,60.02
2023-11-10T06:43:19.286Z,60.99
2023-11-10T06:45:48.628Z,60.25
2023-11-10T06:48:16.924Z,61.49
2023-11-10T06:50:45.532Z,61.26
2023-11-10T06:53:13.976Z,60.25
2023-11-10T06:55:42.087Z,60.27
2023-11-10T06:58:10.078Z,59.57
2023-11-10T07:00:38.523Z,58.41
2023-11-10T07:03:13.385Z,58.18
2023-11-10T07:05:41.729Z,56.28
2023-11-10T07:08:12.002Z,53.99
2023-11-10T07:10:45.469Z,51.60
2023-11-10T07:13:14.781Z,49.48
2023-11-10T07:15:43.779Z,48.37
2023-11-10T07:18:13.685Z,47.18
2023-11-10T07:20:45.549Z,46.37
2023-11-10T07:23:14.464Z,46.77
2023-11-10T07:25:43.392Z,46.37
2023-11-10T07:28:12.020Z,43.81
2023-11-10T07:30:41.579Z,41.26
2023-11-10T07:33:10.305Z,40.15
2023-11-10T07:35:40.228Z,39.86
2023-11-10T07:38:09.035Z,41.22
2023-11-10T07:40:37.564Z,42.57
2023-11-10T07:43:06.039Z,43.60
2023-11-10T07:45:36.453Z,44.80
2023-11-10T07:48:06.388Z,46.35
2023-11-10T07:50:40.197Z,44.80
2023-11-10T07:53:09.110Z,41.88
2023-11-10T07:55:37.039Z,39.68
2023-11-10T07:58:06.034Z,37.40
2023-11-10T08:00:34.485Z,37.48
2023-11-10T08:03:03.309Z,38.30
2023-11-10T08:05:31.653Z,40.12
2023-11-10T08:08:03.496Z,41.54
2023-11-10T08:10:31.434Z,42.67
2023-11-10T08:12:59.732Z,40.70
2023-11-10T08:15:27.828Z,38.25
2023-11-10T08:17:58.075Z,38.36
2023-11-10T08:20:27.630Z,39.77
2023-11-10T08:22:55.784Z,40.74
2023-11-10T08:25:25.597Z,42.07
2023-11-10T08:27:55.869Z,43.57
2023-11-10T08:30:24.158Z,44.55
2023-11-10T08:32:52.285Z,45.16
2023-11-10T08:35:21.229Z,45.88
2023-11-10T08:37:49.134Z,46.92
2023-11-10T08:40:17.809Z,47.86
2023-11-10T08:42:47.109Z,48.52
2023-11-10T08:45:16.698Z,49.99
2023-11-10T08:47:45.288Z,50.51
2023-11-10T08:50:17.180Z,51.69
2023-11-10T08:52:47.998Z,51.92
2023-11-10T08:55:22.227Z,52.99
2023-11-10T08:57:52.922Z,53.90
2023-11-10T09:00:21.209Z,54.59
2023-11-10T09:02:50.749Z,54.74
2023-11-10T09:05:21.461Z,55.29
2023-11-10T09:07:49.442Z,55.27
2023-11-10T09:10:17.974Z,55.38
2023-11-10T09:12:49.450Z,55.66
2023-11-10T09:15:19.597Z,56.02
2023-11-10T09:17:49.210Z,56.40
2023-11-10T09:20:22.217Z,57.14
2023-11-10T09:22:51.148Z,57.79
2023-11-10T09:25:21.576Z,58.02
2023-11-10T09:27:49.832Z,57.81
2023-11-10T09:30:19.292Z,58.51
2023-11-10T09:32:47.313Z,58.93
2023-11-10T09:35:18.006Z,59.36
2023-11-10T09:37:47.640Z,59.30
2023-11-10T09:40:17.998Z,59.15
2023-11-10T09:42:46.524Z,59.14
2023-11-10T09:45:18.760Z,60.14
2023-11-10T09:47:48.992Z,60.03
2023-11-10T09:50:19.375Z,60.26
2023-11-10T09:52:51.892Z,59.61
2023-11-10T09:55:22.523Z,59.58
2023-11-10T09:57:53.464Z,60.17
2023-11-10T10:00:23.433Z,58.97
2023-11-10T10:02:52.891Z,58.57
2023-11-10T10:05:22.317Z,57.80
2023-11-10T10:07:50.455Z,57.20
2023-11-10T10:10:22.686Z,57.02
2023-11-10T10:12:50.710Z,56.21
2023-11-10T10:15:28.220Z,56.28
2023-11-10T10:18:05.717Z,55.50
2023-11-10T10:20:36.432Z,55.08
2023-11-10T10:23:06.176Z,55.09
2023-11-10T10:25:34.120Z,54.27
2023-11-10T10:28:04.969Z,53.44
2023-11-10T10:30:33.948Z,52.56
2023-11-10T10:33:03.386Z,52.03
2023-11-10T10:35:31.307Z,51.91
2023-11-10T10:38:05.909Z,50.27
2023-11-10T10:40:36.977Z,50.67
2023-11-10T10:43:05.845Z,51.90
2023-11-10T10:45:38.177Z,51.95
2023-11-10T10:48:08.086Z,52.02
2023-11-10T10:50:38.355Z,52.24
2023-11-10T10:53:09.393Z,52.71
2023-11-10T10:55:40.713Z,53.30
2023-11-10T10:58:09.780Z,53.50
2023-11-10T11:00:39.367Z,53.79
2023-11-10T11:03:35.243Z,53.82
2023-11-10T11:06:20.449Z,53.91
2023-11-10T11:09:11.358Z,54.81
2023-11-10T11:12:09.197Z,55.06
2023-11-10T11:14:46.141Z,55.46
2023-11-10T11:17:53.921Z,55.26
2023-11-10T11:20:24.431Z,55.71
2023-11-10T11:22:52.850Z,55.50
2023-11-10T11:25:21.818Z,55.37
2023-11-10T11:27:59.099Z,55.71
2023-11-10T11:30:37.549Z,56.00
2023-11-10T11:33:08.131Z,55.89
2023-11-10T11:35:47.669Z,56.06
2023-11-10T11:38:30.260Z,56.23
2023-11-10T11:40:59.399Z,56.11
2023-11-10T11:43:30.129Z,56.26
2023-11-10T11:45:59.528Z,56.03
2023-11-10T11:48:27.668Z,55.85
2023-11-10T11:50:58.145Z,55.81
2023-11-10T11:53:27.079Z,56.24
2023-11-10T11:55:56.571Z,55.53
2023-11-10T11:58:26.848Z,55.23
2023-11-10T12:00:55.260Z,54.58
2023-11-10T12:03:23.470Z,54.75
2023-11-10T12:05:52.289Z,54.44
2023-11-10T12:08:22.806Z,54.28
2023-11-10T12:10:51.199Z,53.91
2023-11-10T12:13:20.677Z,53.69
2023-11-10T12:15:49.473Z,53.76
2023-11-10T12:18:19.444Z,53.09
2023-11-10T12:20:47.974Z,52.92
2023-11-10T12:23:15.890Z,53.23
2023-11-10T12:25:46.175Z,53.09
2023-11-10T12:28:14.965Z,53.00
2023-11-10T12:30:43.774Z,53.21
2023-11-10T12:33:12.154Z,53.43
2023-11-10T12:35:41.287Z,53.20
2023-11-10T12:38:09.997Z,53.58
2023-11-10T12:40:39.378Z,52.29
2023-11-10T12:43:09.981Z,51.81
2023-11-10T12:45:38.322Z,52.01
2023-11-10T12:48:14.017Z,51.66
2023-11-10T12:50:42.269Z,51.68
2023-11-10T12:53:11.232Z,51.66
2023-11-10T12:55:39.783Z,51.53
2023-11-10T12:58:10.287Z,51.96
2023-11-10T13:00:39.439Z,51.43
2023-11-10T13:03:07.563Z,50.86
2023-11-10T13:05:38.971Z,50.33
2023-11-10T13:08:06.970Z,49.90
2023-11-10T13:10:35.036Z,49.71
2023-11-10T13:13:03.271Z,49.71
2023-11-10T13:15:33.547Z,49.86
2023-11-10T13:18:02.640Z,49.87
2023-11-10T13:20:36.068Z,49.70
2023-11-10T13:23:04.660Z,48.93
2023-11-10T13:25:32.576Z,49.46
2023-11-10T13:28:00.880Z,49.08
2023-11-10T13:30:31.383Z,48.82
2023-11-10T13:33:00.767Z,48.62
2023-11-10T13:35:28.858Z,50.10
2023-11-10T13:37:57.968Z,48.26
2023-11-10T13:40:26.001Z,47.25
2023-11-10T13:42:53.952Z,48.24
2023-11-10T13:45:22.195Z,47.22
2023-11-10T13:47:52.666Z,51.83
2023-11-10T13:50:22.064Z,48.19
2023-11-10T13:52:52.722Z,48.09
2023-11-10T13:55:20.707Z,47.53
2023-11-10T13:57:48.956Z,46.35
2023-11-10T14:00:18.551Z,46.16
2023-11-10T14:02:46.564Z,46.70
2023-11-10T14:05:15.497Z,47.28
2023-11-10T14:07:46.155Z,46.17
2023-11-10T14:10:14.345Z,46.43
2023-11-10T14:12:44.474Z,46.54
2023-11-10T14:15:15.735Z,47.00
2023-11-10T14:17:48.432Z,46.80
2023-11-10T14:20:16.544Z,48.20
2023-11-10T14:22:46.108Z,48.36
2023-11-10T14:25:14.091Z,47.68
2023-11-10T14:27:42.108Z,48.28
2023-11-10T14:30:15.889Z,47.31
2023-11-10T14:32:44.540Z,47.07
2023-11-10T14:35:12.684Z,46.82
2023-11-10T14:37:42.696Z,46.03
2023-11-10T14:40:19.202Z,45.90
2023-11-10T14:42:50.069Z,46.00
2023-11-10T14:45:22.618Z,45.29
2023-11-10T14:47:52.438Z,45.18
2023-11-10T14:50:35.697Z,45.78
2023-11-10T14:53:07.715Z,45.49
2023-11-10T14:55:37.096Z,45.74
2023-11-10T14:58:05.240Z,44.46
2023-11-10T15:00:34.438Z,45.25
2023-11-10T15:03:05.718Z,46.16
2023-11-10T15:05:35.634Z,46.80
2023-11-10T15:08:05.424Z,47.78
2023-11-10T15:10:38.745Z,48.14
2023-11-10T15:13:10.377Z,48.57
2023-11-10T15:15:39.326Z,49.01
2023-11-10T15:18:10.410Z,49.13
2023-11-10T15:20:38.919Z,49.32
2023-11-10T15:23:07.113Z,49.92
2023-11-10T15:25:35.114Z,50.35
2023-11-10T15:28:03.160Z,51.37
2023-11-10T15:30:34.871Z,51.39
2023-11-10T15:33:05.073Z,51.57
2023-11-10T15:35:33.569Z,51.66
2023-11-10T15:38:01.607Z,51.88
2023-11-10T15:40:30.104Z,52.15
2023-11-10T15:42:58.689Z,51.83
2023-11-10T15:45:26.609Z,52.17
2023-11-10T15:47:55.976Z,51.44
2023-11-10T15:50:24.167Z,51.10
2023-11-10T15:52:55.511Z,50.73
2023-11-10T15:55:23.445Z,49.56
2023-11-10T15:57:53.415Z,49.33
2023-11-10T16:00:22.217Z,50.51
2023-11-10T16:02:51.441Z,49.98
2023-11-10T16:05:21.291Z,50.33
2023-11-10T16:07:49.669Z,50.26
2023-11-10T16:10:17.856Z,50.33
2023-11-10T16:12:46.245Z,50.16
2023-11-10T16:15:14.396Z,50.63
2023-11-10T16:17:42.313Z,50.60
2023-11-10T16:20:13.288Z,50.25
2023-11-10T16:22:43.985Z,50.29
2023-11-10T16:25:12.214Z,51.04
2023-11-10T16:27:41.501Z,52.42
2023-11-10T16:30:10.909Z,50.71
2023-11-10T16:32:40.136Z,50.82
2023-11-10T16:35:08.489Z,50.78
2023-11-10T16:37:39.157Z,50.47
2023-11-10T16:40:11.481Z,51.30
2023-11-10T16:42:39.666Z,50.33
2023-11-10T16:45:09.228Z,50.48
2023-11-10T16:47:37.289Z,50.96
2023-11-10T16:50:05.818Z,50.82
2023-11-10T16:52:33.770Z,50.96
2023-11-10T16:55:01.818Z,51.41
2023-11-10T16:57:36.593Z,51.30
2023-11-10T17:00:08.230Z,51.43
2023-11-10T17:02:44.646Z,52.22
2023-11-10T17:05:16.065Z,51.69
2023-11-10T17:07:44.080Z,51.74
2023-11-10T17:10:12.157Z,51.32
2023-11-10T17:12:42.716Z,52.10
2023-11-10T17:15:12.084Z,51.26
2023-11-10T17:17:42.708Z,51.37
2023-11-10T17:20:13.149Z,52.53
2023-11-10T17:22:41.197Z,51.98
2023-11-10T17:25:09.849Z,52.58
2023-11-10T17:27:38.439Z,52.86
2023-11-10T17:30:09.154Z,52.70
2023-11-10T17:32:37.464Z,52.43
2023-11-10T17:35:06.133Z,53.02
2023-11-10T17:37:34.181Z,52.36
2023-11-10T17:40:06.522Z,53.14
2023-11-10T17:42:35.889Z,52.50
2023-11-10T17:45:04.906Z,53.48
2023-11-10T17:47:34.736Z,52.99
2023-11-10T17:50:06.106Z,53.66
2023-11-10T17:52:34.019Z,53.49
2023-11-10T17:55:03.280Z,53.89
2023-11-10T17:57:31.287Z,53.68
2023-11-10T17:59:59.291Z,53.71
2023-11-10T18:02:28.001Z,54.09
2023-11-10T18:05:00.424Z,53.95
2023-11-10T18:07:29.225Z,54.20
2023-11-10T18:09:57.259Z,53.92
2023-11-10T18:12:25.225Z,53.98
2023-11-10T18:14:53.373Z,54.52
2023-11-10T18:17:22.105Z,54.19
2023-11-10T18:19:50.134Z,54.68
2023-11-10T18:22:20.027Z,54.67
2023-11-10T18:24:51.505Z,55.34
2023-11-10T18:27:22.520Z,55.74
2023-11-10T18:29:50.644Z,54.54
2023-11-10T18:32:18.653Z,55.07
2023-11-10T18:34:46.820Z,55.27
2023-11-10T18:37:15.271Z,55.67
2023-11-10T18:39:46.819Z,56.11
2023-11-10T18:42:15.123Z,55.83
2023-11-10T18:44:43.104Z,56.32
2023-11-10T18:47:11.060Z,56.49
2023-11-10T18:49:41.116Z,56.50
2023-11-10T18:52:09.228Z,57.13
2023-11-10T18:54:37.366Z,59.04
2023-11-10T18:57:07.597Z,58.16
2023-11-10T18:59:38.692Z,57.76
2023-11-10T19:02:06.716Z,58.84
2023-11-10T19:04:34.593Z,58.57
2023-11-10T19:07:02.681Z,59.50
2023-11-10T19:09:30.727Z,59.51
2023-11-10T19:11:59.752Z,59.12
2023-11-10T19:14:30.416Z,58.57
2023-11-10T19:16:58.497Z,58.77
2023-11-10T19:19:26.637Z,58.95
2023-11-10T19:21:54.629Z,59.02
2023-11-10T19:24:22.725Z,58.92
2023-11-10T19:26:50.816Z,59.36
2023-11-10T19:29:18.812Z,58.86
2023-11-10T19:31:49.859Z,59.60
2023-11-10T19:34:17.800Z,59.57
2023-11-10T19:36:46.445Z,59.05
2023-11-10T19:39:16.095Z,58.99
2023-11-10T19:41:44.151Z,58.44
2023-11-10T19:44:14.960Z,58.16
2023-11-10T19:46:43.921Z,58.24
2023-11-10T19:49:13.490Z,58.50
2023-11-10T19:56:52.861Z,57.72
2023-11-10T19:59:23.572Z,58.01
2023-11-10T20:01:53.004Z,57.78
2023-11-10T20:04:22.489Z,58.01
2023-11-10T20:06:51.163Z,61.08
2023-11-10T20:09:19.432Z,60.90
2023-11-10T20:11:47.581Z,61.55
2023-11-10T20:14:15.542Z,60.86
2023-11-10T20:16:44.656Z,59.62
2023-11-10T20:19:12.750Z,60.08
2023-11-10T20:21:42.085Z,60.25
2023-11-10T20:24:10.785Z,59.75
2023-11-10T20:26:38.927Z,59.64
2023-11-10T20:29:07.163Z,59.12
2023-11-10T20:31:35.288Z,58.83
2023-11-10T20:34:04.686Z,58.24
2023-11-10T20:36:32.791Z,58.26
2023-11-10T20:39:03.069Z,58.11
2023-11-10T20:41:32.494Z,57.78
2023-11-10T20:44:00.455Z,57.33
2023-11-10T20:46:31.096Z,57.50
2023-11-10T20:48:59.169Z,57.21
2023-11-10T20:51:27.720Z,57.08
2023-11-10T20:53:55.793Z,56.88
2023-11-10T20:56:26.363Z,56.98
2023-11-10T20:58:54.407Z,57.68
2023-11-10T21:01:23.755Z,57.66
2023-11-10T21:03:51.987Z,57.47
2023-11-10T21:06:21.849Z,57.17
2023-11-10T21:08:50.388Z,56.53
2023-11-10T21:11:19.982Z,57.45
2023-11-10T21:13:54.125Z,55.76
2023-11-10T21:16:23.382Z,55.39
2023-11-10T21:18:51.392Z,55.66
2023-11-10T21:21:20.720Z,54.61
2023-11-10T21:23:48.722Z,54.66
2023-11-10T21:26:20.369Z,54.49
2023-11-10T21:28:52.519Z,54.40
2023-11-10T21:31:20.467Z,53.93
2023-11-10T21:33:48.465Z,53.65
2023-11-10T21:36:16.460Z,54.28
2023-11-10T21:38:44.637Z,54.00
2023-11-10T21:41:12.535Z,53.80
2023-11-10T21:43:40.472Z,53.87
2023-11-10T21:46:09.895Z,53.59
2023-11-10T21:48:37.916Z,52.73
2023-11-10T21:51:07.431Z,52.64
2023-11-10T21:53:35.603Z,53.29
2023-11-10T21:56:03.949Z,53.84
2023-11-10T21:58:32.004Z,54.07
2023-11-10T22:00:59.929Z,54.44
2023-11-10T22:03:29.300Z,54.52
2023-11-10T22:05:57.327Z,54.49
2023-11-10T22:08:26.294Z,54.12
2023-11-10T22:10:54.292Z,54.59
2023-11-10T22:13:22.348Z,54.08
2023-11-10T22:15:50.360Z,54.67
2023-11-10T22:18:18.394Z,54.54
2023-11-10T22:20:47.782Z,54.97
2023-11-10T22:23:15.708Z,55.14
2023-11-10T22:25:43.797Z,55.51
2023-11-10T22:28:11.703Z,55.33
2023-11-10T22:30:39.784Z,55.39
2023-11-10T22:33:08.060Z,55.69
2023-11-10T22:35:38.072Z,56.07
2023-11-10T22:38:08.444Z,55.51
2023-11-10T22:40:37.039Z,55.18
2023-11-10T22:43:05.131Z,55.51
2023-11-10T22:45:33.465Z,55.19
2023-11-10T22:48:01.507Z,55.32
2023-11-10T22:50:31.888Z,55.80
2023-11-10T22:52:59.955Z,55.45
2023-11-10T22:55:32.206Z,55.74
2023-11-10T22:58:00.906Z,55.77
2023-11-10T23:00:34.032Z,56.54
2023-11-10T23:03:05.159Z,56.94
2023-11-10T23:05:33.350Z,57.25
2023-11-10T23:08:01.318Z,57.09
2023-11-10T23:10:32.622Z,57.09
2023-11-10T23:13:02.664Z,58.05
2023-11-10T23:15:30.768Z,59.29
2023-11-10T23:18:00.020Z,58.29
2023-11-10T23:20:34.688Z,57.83
2023-11-10T23:23:05.095Z,58.00
2023-11-10T23:25:38.897Z,57.48
2023-11-10T23:28:07.399Z,57.32
2023-11-10T23:30:37.121Z,58.85
2023-11-10T23:33:07.719Z,60.34
2023-11-10T23:35:39.911Z,60.61
2023-11-10T23:38:12.129Z,62.00
2023-11-10T23:40:41.435Z,62.30
2023-11-10T23:43:09.342Z,62.27
2023-11-10T23:45:37.414Z,61.32
2023-11-10T23:48:07.266Z,61.05
2023-11-10T23:50:38.225Z,60.79
2023-11-10T23:53:08.370Z,61.19
2023-11-10T23:55:36.638Z,60.32
2023-11-10T23:58:07.916Z,59.89
